Etusivu
METAR-TAF:

METAR-TAF

Lentoasemat :

Williams Lake, Brittiläinen Kolumbia, Kanada

Leveyspiiri: 52-11N, Pituuspiiri: 122-03W, korkeus merenpinnasta: 940 m

Tämänhetkinen sää

Tämä raportti tehtiin 21 minuuttia sitten, kello 11.00 UTC
Tuuli 7 kn lännestä/luoteesta
Lämpötila -2°C
Kosteus 54%
Ilmanpaine 1012 hPa
Näkyvyys: 24.1 km
Hajanaisia pilviä 23000 ft:n korkeudessa

METAR: CYWL 071100Z 30007KT 15SM SCT230 M02/M10 A2989 RMK CI3 SLP154

Aika: 04:21 (11:21 UTC)

Sääennuste

Tämä raportti tehtiin 4 tuntia ja 43 minuuttia sitten, kello 06.38 UTC
Ennuste voimassa 07. päivästä klo 07 UTC - 07. päivään klo 19 UTC
Tuuli 10 kn lännestä/luoteesta
Näkyvyys: 10 km
Muutamia pilviä 6000 ft:n korkeudessa
Hajonneita pilviä 20000 ft:n korkeudessa

TAF: CYWL 070638Z 0707/0719 30010KT P6SM FEW060 BKN200 RMK NXT FCST BY 071300Z

Säähavainnot ja -ennusteet yli 4000 lentoasemalta (METAR- ja TAF-raportit).

Käytössä olevat sääasemat on merkitty karttaan keltaisilla ja punaisilla pisteillä.

Aseta hiiri pisteen päälle nähdäksesi sääaseman nimen.

Klikkaa sitten nähdäksesi säähavainnot ja -ennusteet.

Kartan vaihtaminen: klikkaa mustalla rastilla varustettuja vihreitä pisteitä, niin voit zoomata sisään; viivalla varustettua vihreää pistettä, niin voit zoomata ulos tai vihreitä nuolia, niin pääset viereisille kartoille.


METAR-TAF: